Time;durP1;ratioP1;P1;durP2;ratioP2;P2;SDS_P1;SDS_P2;PMS_P1;PMS_P2;Temp;Humidity;BMP_temperature;BMP_pressure;BME280_temperature;BME280_humidity;BME280_pressure;Samples;Min_cycle;Max_cycle;Signal;HPM_P1;HPM_P2
2023/06/22 00:00:34;;;;;;;9.43;6.65;;;19.50;99.90;;;;;;5051952;28;20208;-76
2023/06/22 00:03:24;;;;;;;8.35;6.75;;;19.50;99.90;;;;;;5036609;28;20200;-78
2023/06/22 00:05:53;;;;;;;7.28;5.63;;;19.50;99.90;;;;;;5049959;28;20236;-78
2023/06/22 00:08:23;;;;;;;8.43;6.45;;;19.30;99.90;;;;;;5050220;28;20689;-78
2023/06/22 00:10:57;;;;;;;9.55;6.18;;;19.40;99.90;;;;;;5051423;28;20220;-77
2023/06/22 00:13:24;;;;;;;9.70;6.95;;;19.30;99.90;;;;;;5050100;28;20224;-76
2023/06/22 00:15:52;;;;;;;9.95;6.82;;;19.30;99.90;;;;;;5050532;28;20240;-76
2023/06/22 00:18:20;;;;;;;7.85;6.38;;;19.20;99.90;;;;;;5050305;28;20229;-80
2023/06/22 00:21:07;;;;;;;8.40;6.30;;;19.20;99.90;;;;;;5050812;28;20533;-77
2023/06/22 00:23:37;;;;;;;8.10;6.40;;;19.20;99.90;;;;;;5050250;28;20216;-77
2023/06/22 00:26:08;;;;;;;8.57;6.60;;;19.20;99.90;;;;;;5050469;28;20239;-76
2023/06/22 00:28:37;;;;;;;8.73;6.28;;;19.00;99.90;;;;;;5066802;28;20200;-78
2023/06/22 00:31:08;;;;;;;8.48;6.45;;;18.90;99.90;;;;;;5050284;28;20535;-76
2023/06/22 00:33:38;;;;;;;7.95;6.30;;;19.00;99.90;;;;;;5049687;28;20209;-77
2023/06/22 00:36:16;;;;;;;6.28;5.35;;;18.90;99.90;;;;;;5049298;28;20239;-78
2023/06/22 00:38:46;;;;;;;7.38;6.18;;;18.90;99.90;;;;;;5050447;28;20232;-77
2023/06/22 00:41:13;;;;;;;8.13;6.05;;;18.80;99.90;;;;;;5049772;28;20208;-76
2023/06/22 00:43:41;;;;;;;8.60;6.03;;;18.70;99.90;;;;;;5067230;28;20669;-77
2023/06/22 00:46:11;;;;;;;9.73;6.65;;;18.70;99.90;;;;;;5050435;28;20228;-76
2023/06/22 00:48:39;;;;;;;10.98;6.70;;;18.70;99.90;;;;;;5050235;28;20307;-76
2023/06/22 00:51:06;;;;;;;10.77;6.53;;;18.70;99.90;;;;;;5050081;28;20236;-77
2023/06/22 00:53:34;;;;;;;9.18;6.70;;;18.50;99.90;;;;;;5047084;28;20224;-77
2023/06/22 00:56:03;;;;;;;11.15;7.78;;;18.50;99.90;;;;;;5049633;28;20223;-76
2023/06/22 00:58:31;;;;;;;11.57;7.43;;;18.40;99.90;;;;;;5049716;28;20662;-76
2023/06/22 01:01:00;;;;;;;9.98;6.97;;;18.30;99.90;;;;;;5049768;28;20708;-77
2023/06/22 01:03:30;;;;;;;9.75;7.03;;;18.30;99.90;;;;;;5045996;28;20213;-77
2023/06/22 01:06:09;;;;;;;9.15;6.78;;;18.30;99.90;;;;;;5039483;28;20744;-76
2023/06/22 01:08:46;;;;;;;10.60;7.05;;;18.20;99.90;;;;;;5029058;28;20221;-76
2023/06/22 01:11:18;;;;;;;10.13;7.25;;;18.20;99.90;;;;;;5029238;28;20216;-75
2023/06/22 01:13:57;;;;;;;7.97;6.20;;;18.20;99.90;;;;;;5029739;28;20216;-77
2023/06/22 01:16:31;;;;;;;9.88;7.10;;;18.20;99.90;;;;;;5029902;28;20296;-76
2023/06/22 01:19:25;;;;;;;9.65;7.35;;;18.10;99.90;;;;;;5021212;28;20319;-76
2023/06/22 01:21:57;;;;;;;10.83;6.87;;;18.10;99.90;;;;;;5023475;28;20213;-76
2023/06/22 01:24:48;;;;;;;11.55;7.32;;;18.00;99.90;;;;;;5029844;28;20584;-77
2023/06/22 01:27:26;;;;;;;11.43;7.73;;;18.00;99.90;;;;;;5035917;28;20209;-77
2023/06/22 01:30:03;;;;;;;10.80;7.60;;;18.00;99.90;;;;;;5028533;28;20301;-76
2023/06/22 01:32:32;;;;;;;8.68;6.70;;;18.00;99.90;;;;;;5029425;28;20587;-76
2023/06/22 01:35:06;;;;;;;10.80;7.13;;;18.00;99.90;;;;;;5025267;28;20655;-76
2023/06/22 01:37:36;;;;;;;11.57;7.05;;;17.90;99.90;;;;;;5050668;28;20209;-76
2023/06/22 01:40:07;;;;;;;11.40;7.53;;;17.90;99.90;;;;;;5024817;28;20241;-77
2023/06/22 01:42:34;;;;;;;10.80;7.40;;;17.90;99.90;;;;;;5054070;28;20648;-75
2023/06/22 01:45:02;;;;;;;11.15;7.07;;;17.90;99.90;;;;;;5038231;28;20640;-76
2023/06/22 01:47:29;;;;;;;9.48;6.35;;;17.90;99.90;;;;;;5058868;28;20217;-76
2023/06/22 01:49:57;;;;;;;9.57;6.40;;;17.80;99.90;;;;;;5037013;28;20219;-76
2023/06/22 01:52:24;;;;;;;10.83;7.87;;;17.80;99.90;;;;;;5034381;28;20239;-75
2023/06/22 01:54:51;;;;;;;12.23;7.43;;;17.80;99.90;;;;;;5033131;28;20241;-78
2023/06/22 01:57:18;;;;;;;10.30;7.03;;;17.70;99.90;;;;;;5033717;28;20213;-75
2023/06/22 01:59:44;;;;;;;12.47;7.73;;;17.60;99.90;;;;;;5033192;28;20236;-77
2023/06/22 02:02:16;;;;;;;12.70;7.53;;;17.60;99.90;;;;;;5032753;28;20213;-77
2023/06/22 02:04:54;;;;;;;12.17;7.93;;;17.60;99.90;;;;;;5049478;28;20292;-77
2023/06/22 02:07:23;;;;;;;11.90;7.72;;;17.60;99.90;;;;;;5028087;28;20717;-75
2023/06/22 02:09:52;;;;;;;12.20;8.27;;;17.50;99.90;;;;;;5032612;28;20241;-75
2023/06/22 02:12:23;;;;;;;11.27;7.47;;;17.50;99.90;;;;;;5029093;28;20219;-76
2023/06/22 02:14:51;;;;;;;12.33;8.50;;;17.40;99.90;;;;;;5032500;28;20286;-75
2023/06/22 02:17:19;;;;;;;13.90;8.83;;;17.50;99.90;;;;;;5032601;28;20229;-76
2023/06/22 02:19:46;;;;;;;12.80;8.70;;;17.40;99.90;;;;;;5032471;28;20287;-76
2023/06/22 02:22:13;;;;;;;11.17;7.73;;;17.40;99.90;;;;;;5032639;28;20300;-77
2023/06/22 02:24:44;;;;;;;12.13;8.00;;;17.40;99.90;;;;;;5032178;28;20240;-75
2023/06/22 02:27:12;;;;;;;11.77;8.00;;;17.40;99.90;;;;;;5032836;28;20213;-75
2023/06/22 02:29:39;;;;;;;12.50;8.23;;;17.20;99.90;;;;;;5050463;28;20216;-77
2023/06/22 02:32:39;;;;;;;13.37;8.37;;;17.30;99.90;;;;;;5032403;28;20240;-77
2023/06/22 02:35:16;;;;;;;12.07;7.83;;;17.30;99.90;;;;;;5013224;28;20213;-77
2023/06/22 02:37:50;;;;;;;12.47;7.90;;;17.20;99.90;;;;;;5030564;28;20202;-75
2023/06/22 02:40:17;;;;;;;13.47;7.63;;;17.20;99.90;;;;;;5044904;28;20321;-77
2023/06/22 02:42:47;;;;;;;12.60;8.00;;;17.20;99.90;;;;;;5032575;28;20209;-75
2023/06/22 02:45:14;;;;;;;11.97;7.73;;;17.10;99.90;;;;;;5031078;28;20657;-76
2023/06/22 02:47:41;;;;;;;12.63;8.53;;;17.10;99.90;;;;;;5031164;28;20291;-77
2023/06/22 02:50:27;;;;;;;13.87;8.37;;;17.10;99.90;;;;;;5032332;28;20243;-76
2023/06/22 02:53:03;;;;;;;13.47;8.90;;;17.10;99.90;;;;;;5032377;28;20213;-76
2023/06/22 02:55:34;;;;;;;15.43;10.10;;;17.10;99.90;;;;;;5032671;28;20232;-76
2023/06/22 02:58:04;;;;;;;13.57;9.00;;;17.00;99.90;;;;;;5031448;28;20304;-76
2023/06/22 03:00:34;;;;;;;14.50;9.00;;;17.10;99.90;;;;;;5031648;28;20231;-75
2023/06/22 03:03:01;;;;;;;15.83;10.23;;;17.00;99.90;;;;;;5023533;28;20666;-76
2023/06/22 03:05:31;;;;;;;14.10;9.20;;;17.10;99.90;;;;;;5037423;28;20289;-78
2023/06/22 03:07:58;;;;;;;15.30;9.13;;;17.10;99.90;;;;;;5043122;28;20208;-76
2023/06/22 03:10:26;;;;;;;14.37;9.40;;;17.10;99.90;;;;;;5051410;28;20283;-77
2023/06/22 03:13:07;;;;;;;15.23;9.97;;;17.00;99.90;;;;;;5052012;28;20213;-77
2023/06/22 03:15:39;;;;;;;14.77;10.00;;;17.00;99.90;;;;;;5051233;28;20224;-78
2023/06/22 03:18:15;;;;;;;17.20;9.93;;;17.00;99.90;;;;;;5052223;28;20207;-76
2023/06/22 03:20:51;;;;;;;17.80;9.57;;;17.00;99.90;;;;;;5050773;28;20235;-76
2023/06/22 03:23:34;;;;;;;12.70;9.33;;;17.00;99.90;;;;;;5051667;28;20966;-76
2023/06/22 03:26:04;;;;;;;18.20;10.40;;;17.00;99.90;;;;;;5051212;28;20595;-76
2023/06/22 03:28:40;;;;;;;15.40;10.57;;;17.00;99.90;;;;;;5049610;28;20208;-77
2023/06/22 03:31:08;;;;;;;18.37;10.80;;;16.90;99.90;;;;;;5051045;28;20299;-75
2023/06/22 03:33:35;;;;;;;16.17;10.73;;;17.00;99.90;;;;;;5050767;28;20216;-78
2023/06/22 03:36:09;;;;;;;18.93;11.63;;;17.00;99.90;;;;;;5052088;28;20228;-76
2023/06/22 03:38:39;;;;;;;16.57;10.53;;;17.00;99.90;;;;;;5050623;28;20669;-76
2023/06/22 03:41:08;;;;;;;19.23;12.03;;;17.00;99.90;;;;;;5050965;28;20204;-76
2023/06/22 03:44:16;;;;;;;18.20;10.57;;;17.00;99.90;;;;;;5050598;28;20702;-77
2023/06/22 03:46:45;;;;;;;19.17;11.47;;;17.00;99.90;;;;;;5051025;28;20212;-78
2023/06/22 03:49:12;;;;;;;18.03;11.30;;;16.90;99.90;;;;;;5051055;28;20212;-79
2023/06/22 03:51:39;;;;;;;21.37;12.57;;;17.00;99.90;;;;;;5050793;28;20223;-75
2023/06/22 03:54:09;;;;;;;20.73;12.13;;;17.00;99.90;;;;;;5050406;28;20248;-75
2023/06/22 03:56:38;;;;;;;20.10;13.10;;;16.90;99.90;;;;;;5050758;28;20227;-77
2023/06/22 03:59:05;;;;;;;21.63;13.67;;;17.00;99.90;;;;;;5049864;28;20270;-76
2023/06/22 04:01:34;;;;;;;22.77;14.17;;;17.00;99.90;;;;;;5050588;28;20240;-77
2023/06/22 04:04:09;;;;;;;23.13;13.93;;;16.90;99.90;;;;;;5047812;28;20200;-76
2023/06/22 04:06:36;;;;;;;23.93;14.00;;;17.00;99.90;;;;;;5055599;28;20236;-79
2023/06/22 04:12:39;;;;;;;21.37;13.13;;;17.00;99.90;;;;;;5064693;28;20541;-77
2023/06/22 04:15:07;;;;;;;22.53;13.50;;;16.90;99.90;;;;;;5050138;28;20217;-80
2023/06/22 04:17:44;;;;;;;23.67;14.97;;;17.00;99.90;;;;;;5050811;28;21330;-77
2023/06/22 04:20:15;;;;;;;27.07;15.33;;;16.90;99.90;;;;;;5050416;28;20240;-77
2023/06/22 04:22:50;;;;;;;24.90;15.73;;;17.00;99.90;;;;;;5049958;28;20656;-76
2023/06/22 04:25:20;;;;;;;26.30;16.03;;;17.10;99.90;;;;;;5050232;28;20218;-76
2023/06/22 04:27:49;;;;;;;30.53;16.73;;;17.10;99.90;;;;;;5050089;28;20204;-78
2023/06/22 04:30:19;;;;;;;32.40;18.10;;;17.10;99.90;;;;;;5050887;28;20712;-76
2023/06/22 04:32:55;;;;;;;31.10;18.13;;;17.20;99.90;;;;;;5049081;28;20640;-77
2023/06/22 04:35:35;;;;;;;33.80;18.92;;;17.30;99.90;;;;;;5050929;28;20258;-77
2023/06/22 04:38:07;;;;;;;32.23;18.63;;;17.40;99.90;;;;;;5050323;28;20289;-77
2023/06/22 04:40:58;;;;;;;31.23;18.97;;;17.50;99.90;;;;;;5050303;28;20634;-76
2023/06/22 04:43:53;;;;;;;31.90;18.70;;;17.60;99.90;;;;;;5049525;28;20644;-77
2023/06/22 04:46:28;;;;;;;31.15;19.25;;;17.60;99.90;;;;;;5050951;28;20222;-79
2023/06/22 04:49:19;;;;;;;35.60;19.85;;;17.70;99.90;;;;;;5059176;28;20239;-77
2023/06/22 04:52:13;;;;;;;32.60;19.27;;;17.80;99.90;;;;;;5049490;28;20216;-78
2023/06/22 04:55:18;;;;;;;37.53;22.08;;;17.90;99.90;;;;;;5050294;28;20277;-77
2023/06/22 04:58:25;;;;;;;38.00;22.13;;;18.00;99.90;;;;;;5052899;28;20216;-78
2023/06/22 05:00:56;;;;;;;40.78;23.23;;;18.20;99.90;;;;;;5049694;28;20242;-76
2023/06/22 05:03:41;;;;;;;37.13;21.90;;;18.70;99.90;;;;;;5049707;28;20197;-78
2023/06/22 05:06:19;;;;;;;41.28;22.50;;;18.30;99.90;;;;;;5059949;28;20239;-75
2023/06/22 05:09:14;;;;;;;43.38;24.38;;;18.90;99.90;;;;;;5050016;28;20266;-76
2023/06/22 05:12:06;;;;;;;47.83;26.92;;;19.40;99.90;;;;;;5055287;28;20224;-77
2023/06/22 05:14:53;;;;;;;40.58;23.73;;;18.90;99.90;;;;;;5056345;28;20285;-77
2023/06/22 05:17:24;;;;;;;46.17;26.63;;;18.90;99.90;;;;;;5052683;28;20686;-76
2023/06/22 05:20:24;;;;;;;39.50;23.85;;;18.90;99.90;;;;;;5053936;28;20239;-78
2023/06/22 05:23:02;;;;;;;42.92;25.10;;;19.30;99.90;;;;;;5053731;28;20220;-76
2023/06/22 05:26:30;;;;;;;;;;;;;;;;;;;;;
2023/06/22 05:29:35;;;;;;;38.67;23.92;;;19.90;99.90;;;;;;4968003;28;20211;-77
2023/06/22 05:33:08;;;;;;;;;;;;;;;;;;;;;
2023/06/22 05:35:58;;;;;;;36.63;23.17;;;21.50;99.90;;;;;;4890559;29;20305;-77
2023/06/22 05:38:58;;;;;;;39.95;26.05;;;22.30;99.90;;;;;;4879981;29;20333;-77
2023/06/22 05:42:09;;;;;;;37.38;23.77;;;22.80;99.90;;;;;;4909430;29;20232;-78
2023/06/22 05:45:12;;;;;;;38.95;24.30;;;23.50;99.90;;;;;;4910105;29;20699;-78
2023/06/22 05:48:47;;;;;;;39.35;22.63;;;24.30;99.90;;;;;;4843504;29;20220;-79
2023/06/22 05:52:26;;;;;;;35.15;24.15;;;25.00;99.90;;;;;;4944263;28;20309;-76
2023/06/22 05:55:54;;;;;;;32.22;22.77;;;25.00;99.90;;;;;;4916245;28;20223;-78
2023/06/22 05:58:46;;;;;;;34.10;23.98;;;25.00;99.90;;;;;;4981189;28;20775;-79
2023/06/22 06:01:34;;;;;;;35.05;23.77;;;25.10;99.90;;;;;;4971491;28;20242;-78
2023/06/22 06:04:55;;;;;;;34.50;24.50;;;25.10;99.90;;;;;;4904471;29;20658;-76
2023/06/22 06:07:34;;;;;;;27.73;20.30;;;24.90;99.90;;;;;;4880233;29;20308;-77
2023/06/22 06:10:17;;;;;;;34.67;23.55;;;25.10;99.90;;;;;;4885067;29;20230;-76
2023/06/22 06:14:20;;;;;;;;;;;;;;;;;;;;;
2023/06/22 06:17:41;;;;;;;;;;;;;;;;;;;;;
2023/06/22 06:36:08;;;;;;;22.08;17.83;;;28.50;99.90;;;;;;4815476;29;20231;-75
2023/06/22 06:38:51;;;;;;;20.08;15.82;;;28.80;99.90;;;;;;4945651;28;20228;-77
2023/06/22 06:42:07;;;;;;;19.42;15.70;;;29.00;99.90;;;;;;4951608;28;20228;-77
2023/06/22 06:52:50;;;;;;;;;;;;;;;;;;;;;
2023/06/22 06:56:35;;;;;;;;;;;;;;;;;;;;;
2023/06/22 06:59:26;;;;;;;18.42;13.55;;;30.00;99.90;;;;;;5050338;28;20213;-78
2023/06/22 07:05:49;;;;;;;;;;;;;;;;;;;;;
2023/06/22 07:09:07;;;;;;;16.48;12.95;;;31.00;99.90;;;;;;4987884;28;20231;-78
2023/06/22 07:15:17;;;;;;;14.32;12.23;;;31.00;99.90;;;;;;4985849;28;20215;-78
2023/06/22 07:19:00;;;;;;;13.93;11.20;;;31.30;99.90;;;;;;4884947;29;20218;-78
2023/06/22 07:25:14;;;;;;;12.93;10.63;;;31.00;99.90;;;;;;4859932;29;20225;-77
2023/06/22 07:28:37;;;;;;;;;;;;;;;;;;;;;
2023/06/22 07:32:08;;;;;;;;;;;;;;;;;;;;;
2023/06/22 07:35:21;;;;;;;12.60;10.13;;;31.40;99.90;;;;;;4923933;28;20287;-76
2023/06/22 07:40:48;;;;;;;12.30;9.65;;;31.90;99.90;;;;;;5015892;28;20326;-77
2023/06/22 07:43:40;;;;;;;11.88;9.27;;;32.20;99.90;;;;;;5010122;28;20224;-76
2023/06/22 07:46:31;;;;;;;11.07;9.32;;;32.30;99.90;;;;;;5007007;28;20205;-77
2023/06/22 07:49:02;;;;;;;11.20;8.90;;;32.00;99.90;;;;;;5006901;28;20212;-76
2023/06/22 07:51:29;;;;;;;10.82;8.10;;;31.70;99.90;;;;;;5031022;28;20286;-77
2023/06/22 07:54:17;;;;;;;9.77;8.52;;;31.40;99.90;;;;;;5032991;28;20693;-76
2023/06/22 07:56:55;;;;;;;;;;;;;;;;;;;;;
2023/06/22 07:59:47;;;;;;;11.80;9.52;;;30.90;99.90;;;;;;5020019;28;20839;-75
2023/06/22 08:02:30;;;;;;;10.07;8.65;;;30.60;99.90;;;;;;5030917;28;20212;-77
2023/06/22 08:04:59;;;;;;;10.50;7.93;;;30.40;99.90;;;;;;5030423;28;20620;-76
2023/06/22 08:07:47;;;;;;;11.25;8.52;;;30.50;99.90;;;;;;5048764;28;20240;-77
2023/06/22 08:10:15;;;;;;;10.23;7.72;;;30.60;99.90;;;;;;5050454;28;20295;-76
2023/06/22 08:12:54;;;;;;;;;;;;;;;;;;;;;
2023/06/22 08:15:29;;;;;;;10.63;8.90;;;30.70;99.90;;;;;;5068038;28;20212;-76
2023/06/22 08:17:57;;;;;;;12.25;8.65;;;30.60;99.90;;;;;;5050227;28;20224;-77
2023/06/22 08:20:25;;;;;;;10.52;8.43;;;30.40;99.90;;;;;;5050661;28;20266;-77
2023/06/22 08:22:54;;;;;;;9.35;7.35;;;30.00;99.90;;;;;;5050316;28;20206;-78
2023/06/22 08:25:39;;;;;;;11.82;8.40;;;29.80;99.90;;;;;;5051382;28;20218;-78
2023/06/22 08:28:07;;;;;;;10.45;8.13;;;29.70;99.90;;;;;;5050418;28;20224;-77
2023/06/22 08:30:34;;;;;;;9.15;7.72;;;29.80;99.90;;;;;;5057933;28;20220;-77
2023/06/22 08:33:01;;;;;;;8.95;8.02;;;30.10;99.90;;;;;;5050146;28;20284;-78
2023/06/22 08:35:35;;;;;;;11.95;8.27;;;30.30;99.90;;;;;;5049471;28;20671;-78
2023/06/22 08:38:05;;;;;;;11.15;8.40;;;30.60;99.90;;;;;;5049764;28;20552;-78
2023/06/22 08:40:32;;;;;;;10.30;7.80;;;30.70;99.90;;;;;;5050116;28;20319;-78
2023/06/22 08:43:01;;;;;;;7.90;6.88;;;31.00;99.90;;;;;;5050467;28;20279;-77
2023/06/22 08:45:28;;;;;;;10.38;7.15;;;31.10;99.90;;;;;;5049437;28;20285;-76
2023/06/22 08:47:56;;;;;;;10.55;7.28;;;31.40;99.90;;;;;;5049608;28;20651;-78
2023/06/22 08:50:27;;;;;;;9.13;6.80;;;31.40;99.90;;;;;;5050035;28;20216;-79
2023/06/22 08:53:00;;;;;;;12.02;7.78;;;31.60;99.90;;;;;;5049954;28;20215;-77
2023/06/22 08:55:27;;;;;;;9.68;6.85;;;31.50;99.90;;;;;;5050025;28;20512;-77
2023/06/22 08:57:54;;;;;;;9.48;7.45;;;31.50;99.90;;;;;;5049894;28;20212;-78
2023/06/22 09:00:22;;;;;;;8.73;6.75;;;31.70;99.90;;;;;;5049974;28;20232;-76
2023/06/22 09:02:48;;;;;;;9.63;7.50;;;31.60;99.90;;;;;;5049254;28;20193;-78
2023/06/22 09:05:16;;;;;;;10.30;7.15;;;31.20;99.90;;;;;;5067643;28;20205;-78
2023/06/22 09:07:43;;;;;;;10.07;7.28;;;31.20;99.90;;;;;;5049081;28;20235;-78
2023/06/22 09:10:12;;;;;;;7.78;6.22;;;31.10;99.90;;;;;;5049939;28;20218;-76
2023/06/22 09:12:39;;;;;;;8.73;6.95;;;31.20;99.90;;;;;;5049649;28;20303;-76
2023/06/22 09:15:10;;;;;;;8.95;7.05;;;31.10;99.90;;;;;;5049416;28;20216;-76
2023/06/22 09:17:41;;;;;;;8.07;6.93;;;31.10;99.90;;;;;;5052055;28;20211;-77
2023/06/22 09:20:10;;;;;;;7.60;6.63;;;31.00;99.90;;;;;;5052298;28;20236;-79
2023/06/22 09:22:40;;;;;;;11.45;7.03;;;31.10;99.90;;;;;;5050096;28;20220;-77
2023/06/22 09:25:07;;;;;;;10.43;7.25;;;31.30;99.90;;;;;;5047501;28;20232;-77
2023/06/22 09:27:34;;;;;;;9.18;6.15;;;31.40;99.90;;;;;;5049241;28;20212;-78
2023/06/22 09:30:03;;;;;;;9.60;6.63;;;31.30;99.90;;;;;;5049826;28;20563;-77
2023/06/22 09:32:30;;;;;;;8.20;6.15;;;31.10;99.90;;;;;;5049492;28;20212;-77
2023/06/22 09:34:57;;;;;;;7.63;6.22;;;30.80;99.90;;;;;;5049552;28;20322;-79
2023/06/22 09:37:24;;;;;;;9.57;7.55;;;30.70;99.90;;;;;;5049159;28;20213;-78
2023/06/22 09:39:54;;;;;;;8.98;6.57;;;30.50;99.90;;;;;;5056883;28;20297;-76
2023/06/22 09:42:21;;;;;;;8.88;7.28;;;30.30;99.90;;;;;;5049739;28;20212;-78
2023/06/22 09:44:48;;;;;;;8.65;6.85;;;30.10;99.90;;;;;;5049555;28;20220;-77
2023/06/22 09:47:15;;;;;;;9.05;6.40;;;30.10;99.90;;;;;;5049505;28;20220;-76
2023/06/22 09:49:42;;;;;;;7.80;6.38;;;30.00;99.90;;;;;;5049549;28;20205;-79
2023/06/22 09:52:15;;;;;;;9.63;7.30;;;30.00;99.90;;;;;;5050697;28;20224;-77
2023/06/22 09:54:42;;;;;;;10.32;7.40;;;29.80;99.90;;;;;;5049609;28;20720;-77
2023/06/22 09:57:09;;;;;;;12.23;8.52;;;29.60;99.90;;;;;;5053299;28;20664;-76
2023/06/22 09:59:36;;;;;;;8.85;7.40;;;29.50;99.90;;;;;;5053392;28;20300;-77
2023/06/22 10:02:04;;;;;;;8.77;7.07;;;29.40;99.90;;;;;;5053228;28;20296;-76
2023/06/22 10:04:31;;;;;;;10.75;7.78;;;29.30;99.90;;;;;;5071551;28;20212;-77
2023/06/22 10:06:58;;;;;;;10.38;8.00;;;29.30;99.90;;;;;;5053004;28;20236;-77
2023/06/22 10:09:27;;;;;;;10.55;8.38;;;29.20;99.90;;;;;;5052129;28;20319;-80
2023/06/22 10:11:54;;;;;;;10.05;7.85;;;29.20;99.90;;;;;;5052585;28;20223;-77
2023/06/22 10:14:21;;;;;;;15.80;9.60;;;29.20;99.90;;;;;;5070817;28;20201;-77
2023/06/22 10:16:48;;;;;;;13.43;8.43;;;29.10;99.90;;;;;;5052740;28;20239;-78
2023/06/22 10:19:15;;;;;;;10.27;8.23;;;29.10;99.90;;;;;;5052528;28;20601;-78
2023/06/22 10:21:42;;;;;;;10.38;8.48;;;29.10;99.90;;;;;;5052623;28;20312;-76
2023/06/22 10:24:09;;;;;;;13.77;9.98;;;29.10;99.90;;;;;;5052548;28;20216;-79
2023/06/22 10:26:37;;;;;;;11.05;8.27;;;29.00;99.90;;;;;;5052606;28;20282;-77
2023/06/22 10:29:06;;;;;;;11.38;8.05;;;29.00;99.90;;;;;;5052484;28;20213;-76
2023/06/22 10:31:43;;;;;;;14.63;9.20;;;29.00;99.90;;;;;;5054254;28;20573;-76
2023/06/22 10:34:10;;;;;;;11.10;8.18;;;28.90;99.90;;;;;;5052604;28;20217;-78
2023/06/22 10:36:39;;;;;;;11.68;9.07;;;28.80;99.90;;;;;;5052687;28;20208;-78
2023/06/22 10:39:06;;;;;;;10.38;8.07;;;28.80;99.90;;;;;;5052163;28;20690;-80
2023/06/22 10:41:33;;;;;;;9.40;7.50;;;28.80;99.90;;;;;;5052155;28;20232;-76
2023/06/22 10:44:00;;;;;;;13.80;9.00;;;28.60;99.90;;;;;;5044442;28;20244;-77
2023/06/22 10:46:28;;;;;;;10.25;8.05;;;28.50;99.90;;;;;;5052941;28;20204;-76
2023/06/22 10:48:56;;;;;;;11.88;8.10;;;28.30;99.90;;;;;;5052752;28;20557;-77
2023/06/22 10:51:24;;;;;;;13.43;9.50;;;28.30;99.90;;;;;;5052260;28;20208;-78
2023/06/22 10:53:51;;;;;;;13.45;8.32;;;28.20;99.90;;;;;;5052900;28;20266;-76
2023/06/22 10:56:19;;;;;;;11.68;9.35;;;28.10;99.90;;;;;;5052714;28;20602;-79
2023/06/22 10:58:46;;;;;;;12.63;9.63;;;28.10;99.90;;;;;;5052665;28;20291;-77
2023/06/22 11:01:14;;;;;;;11.95;8.60;;;28.10;99.90;;;;;;5052538;28;20236;-78
2023/06/22 11:04:01;;;;;;;12.43;9.63;;;28.10;99.90;;;;;;5052096;28;20557;-77
2023/06/22 11:06:28;;;;;;;12.20;8.70;;;28.10;99.90;;;;;;5050435;28;20260;-76
2023/06/22 11:08:55;;;;;;;11.70;8.80;;;28.10;99.90;;;;;;5060061;28;20232;-77
2023/06/22 11:11:42;;;;;;;11.60;8.50;;;28.10;99.90;;;;;;5055340;28;20257;-76
2023/06/22 11:14:10;;;;;;;13.57;9.05;;;28.10;99.90;;;;;;5052022;28;20303;-77
2023/06/22 11:16:37;;;;;;;10.18;7.95;;;28.00;99.90;;;;;;5051061;28;20729;-77
2023/06/22 11:19:05;;;;;;;11.90;9.20;;;28.00;99.90;;;;;;5051306;28;20676;-77
2023/06/22 11:21:32;;;;;;;12.45;8.57;;;27.90;99.90;;;;;;5051212;28;20307;-76
2023/06/22 11:24:00;;;;;;;11.43;8.68;;;27.90;99.90;;;;;;5050885;28;20243;-75
2023/06/22 11:26:27;;;;;;;11.68;7.80;;;28.10;99.90;;;;;;5051530;28;20215;-77
2023/06/22 11:28:54;;;;;;;11.13;8.10;;;28.20;99.90;;;;;;5051550;28;20258;-78
2023/06/22 11:31:21;;;;;;;11.43;8.35;;;28.40;99.90;;;;;;5051672;28;20235;-76
2023/06/22 11:33:54;;;;;;;11.10;8.60;;;28.30;99.90;;;;;;5052078;28;20595;-78
2023/06/22 11:36:21;;;;;;;12.35;8.32;;;28.40;99.90;;;;;;5051595;28;20200;-77
2023/06/22 11:38:48;;;;;;;11.77;7.80;;;28.60;99.90;;;;;;5059297;28;20704;-77
2023/06/22 11:41:18;;;;;;;9.68;7.80;;;28.70;99.90;;;;;;5059374;28;20247;-75
2023/06/22 11:43:46;;;;;;;11.95;8.15;;;28.80;99.90;;;;;;5059338;28;20568;-77
2023/06/22 11:46:13;;;;;;;10.75;7.05;;;28.80;99.90;;;;;;5050806;28;20304;-75
2023/06/22 11:48:40;;;;;;;10.85;7.55;;;28.80;99.90;;;;;;5051625;28;20200;-75
2023/06/22 11:51:08;;;;;;;11.05;7.82;;;28.80;99.90;;;;;;5051486;28;20216;-76
2023/06/22 11:53:35;;;;;;;10.13;7.82;;;28.70;99.90;;;;;;5051223;28;20239;-77
2023/06/22 11:56:05;;;;;;;11.80;8.13;;;28.60;99.90;;;;;;5051387;28;20558;-79
2023/06/22 11:58:36;;;;;;;10.55;7.60;;;28.60;99.90;;;;;;5055792;28;20226;-75
2023/06/22 12:01:03;;;;;;;9.57;7.72;;;28.40;99.90;;;;;;5062728;28;20243;-75
2023/06/22 12:03:32;;;;;;;10.15;8.27;;;28.40;99.90;;;;;;5062193;28;20268;-75
2023/06/22 12:06:00;;;;;;;13.38;8.57;;;28.50;99.90;;;;;;5076860;28;20204;-75
2023/06/22 12:08:27;;;;;;;9.75;7.82;;;28.50;99.90;;;;;;5057106;28;20635;-76
2023/06/22 12:10:57;;;;;;;12.18;9.07;;;28.50;99.90;;;;;;5051716;28;20231;-80
2023/06/22 12:13:24;;;;;;;13.13;9.32;;;28.40;99.90;;;;;;5050912;28;20212;-76
2023/06/22 12:15:52;;;;;;;11.57;8.80;;;28.30;99.90;;;;;;5050571;28;20746;-76
2023/06/22 12:18:21;;;;;;;13.20;9.38;;;28.20;99.90;;;;;;5050850;28;20287;-77
2023/06/22 12:20:48;;;;;;;11.52;8.90;;;28.20;99.90;;;;;;5050280;28;20674;-77
2023/06/22 12:23:20;;;;;;;13.57;10.15;;;28.20;99.90;;;;;;5050756;28;20617;-76
2023/06/22 12:25:50;;;;;;;14.63;10.43;;;28.00;99.90;;;;;;5042266;28;20205;-76
2023/06/22 12:28:17;;;;;;;14.60;10.20;;;27.90;99.90;;;;;;5050994;28;20764;-77
2023/06/22 12:30:44;;;;;;;12.27;9.32;;;27.90;99.90;;;;;;5051079;28;20578;-74
2023/06/22 12:33:11;;;;;;;14.52;11.05;;;27.60;99.90;;;;;;5068812;28;20232;-76
2023/06/22 12:35:38;;;;;;;12.93;10.70;;;27.50;99.90;;;;;;5050504;28;20238;-77
2023/06/22 12:38:08;;;;;;;15.25;11.27;;;27.40;99.90;;;;;;5050135;28;20494;-76
2023/06/22 12:40:35;;;;;;;15.88;10.77;;;27.30;99.90;;;;;;5051115;28;20220;-76
2023/06/22 12:43:02;;;;;;;14.32;10.10;;;27.70;99.90;;;;;;5050951;28;20240;-76
2023/06/22 12:45:31;;;;;;;11.35;9.68;;;27.20;99.90;;;;;;5050834;28;20201;-77
2023/06/22 12:47:59;;;;;;;12.35;10.70;;;27.60;99.90;;;;;;5068606;28;20216;-76
2023/06/22 12:50:26;;;;;;;17.48;12.27;;;27.10;99.90;;;;;;5050506;28;20223;-77
2023/06/22 12:52:54;;;;;;;13.57;11.73;;;27.00;99.90;;;;;;5050982;28;20220;-76
2023/06/22 12:55:21;;;;;;;15.05;11.48;;;27.00;99.90;;;;;;5050070;28;20216;-77
2023/06/22 12:57:48;;;;;;;13.68;10.93;;;26.90;99.90;;;;;;5049755;28;20212;-78
2023/06/22 13:00:16;;;;;;;13.95;10.73;;;26.80;99.90;;;;;;5049856;28;20220;-78
2023/06/22 13:02:43;;;;;;;13.77;11.07;;;26.80;99.90;;;;;;5049409;28;20216;-76
2023/06/22 13:05:10;;;;;;;15.15;12.13;;;26.70;99.90;;;;;;5050384;28;20258;-75
2023/06/22 13:07:37;;;;;;;14.82;10.57;;;26.60;99.90;;;;;;5049994;28;20240;-77
2023/06/22 13:10:05;;;;;;;18.67;13.10;;;26.50;99.90;;;;;;5049256;28;20228;-78
2023/06/22 13:12:32;;;;;;;16.63;13.57;;;26.40;99.90;;;;;;5049683;28;20258;-76
2023/06/22 13:14:59;;;;;;;20.65;13.98;;;26.30;99.90;;;;;;5050213;28;20299;-76
2023/06/22 13:17:26;;;;;;;20.77;13.98;;;26.10;99.90;;;;;;5050047;28;20688;-77
2023/06/22 13:19:53;;;;;;;19.63;13.52;;;26.00;99.90;;;;;;5049758;28;20246;-78
2023/06/22 13:22:39;;;;;;;17.92;12.25;;;25.80;99.90;;;;;;5049237;28;20633;-76
2023/06/22 13:25:07;;;;;;;15.98;12.98;;;25.60;99.90;;;;;;5050692;28;20322;-76
2023/06/22 13:27:34;;;;;;;16.85;13.38;;;25.40;99.90;;;;;;5057519;28;20216;-75
2023/06/22 13:30:02;;;;;;;20.30;14.52;;;;;;;;;;5050251;28;20212;-76
2023/06/22 13:32:29;;;;;;;25.20;15.40;;;24.90;99.90;;;;;;5070511;28;20211;-75
2023/06/22 13:34:56;;;;;;;20.55;15.95;;;24.60;99.90;;;;;;5070863;28;20197;-76
2023/06/22 13:37:23;;;;;;;22.50;16.67;;;24.40;99.90;;;;;;5071156;28;20236;-79
2023/06/22 13:39:50;;;;;;;25.80;18.33;;;24.30;99.90;;;;;;5053347;28;20232;-76
2023/06/22 13:42:17;;;;;;;24.05;17.70;;;24.10;99.90;;;;;;5053255;28;20591;-76
2023/06/22 13:44:44;;;;;;;24.15;15.80;;;23.90;99.90;;;;;;5053556;28;20212;-76
2023/06/22 13:47:11;;;;;;;22.30;15.73;;;23.70;99.90;;;;;;5053094;28;20235;-77
2023/06/22 13:49:37;;;;;;;21.52;16.33;;;23.50;99.90;;;;;;5070654;28;20211;-78
2023/06/22 13:52:06;;;;;;;20.70;16.58;;;23.20;99.90;;;;;;5070343;28;20246;-76
2023/06/22 13:54:33;;;;;;;25.67;17.77;;;22.90;99.90;;;;;;5070310;28;20326;-76
2023/06/22 13:57:02;;;;;;;23.33;18.13;;;22.70;99.90;;;;;;5063163;28;20224;-75
2023/06/22 13:59:29;;;;;;;27.48;17.67;;;22.70;99.90;;;;;;5053344;28;20212;-77
2023/06/22 14:01:56;;;;;;;26.58;18.13;;;22.60;99.90;;;;;;5070460;28;20228;-75
2023/06/22 14:04:26;;;;;;;23.58;17.58;;;22.60;99.90;;;;;;5052573;28;20250;-78
2023/06/22 14:06:53;;;;;;;25.42;17.02;;;22.60;99.90;;;;;;5050944;28;20689;-77
2023/06/22 14:09:23;;;;;;;24.67;17.60;;;22.50;99.90;;;;;;5052823;28;20227;-76